Time;durP1;ratioP1;P1;durP2;ratioP2;P2;SDS_P1;SDS_P2;PMS_P1;PMS_P2;Temp;Humidity;BMP_temperature;BMP_pressure;BME280_temperature;BME280_humidity;BME280_pressure;Samples;Min_cycle;Max_cycle;Signal;HPM_P1;HPM_P2
2022/10/07 00:01:08;;;;;;;3.22;2.78;;;;;;;15.24;81.24;99841.09;5019190;27;102933;-65
2022/10/07 00:03:36;;;;;;;4.37;3.10;;;;;;;15.30;80.52;99849.47;5019369;27;103450;-65
2022/10/07 00:06:06;;;;;;;7.20;3.42;;;;;;;15.33;80.60;99846.56;5032225;27;102713;-66
2022/10/07 00:08:36;;;;;;;2.70;2.30;;;;;;;15.40;80.47;99845.16;5020189;27;102807;-65
2022/10/07 00:11:09;;;;;;;5.80;3.65;;;;;;;15.36;79.67;99843.69;5025790;27;103827;-65
2022/10/07 00:13:39;;;;;;;3.03;2.40;;;;;;;15.43;80.62;99844.94;5023116;27;103267;-65
2022/10/07 00:16:09;;;;;;;4.13;3.22;;;;;;;15.45;80.46;99843.00;5019005;27;103331;-65
2022/10/07 00:18:37;;;;;;;4.00;2.30;;;;;;;15.50;80.42;99840.88;5019217;27;102811;-65
2022/10/07 00:21:07;;;;;;;4.90;3.00;;;;;;;15.40;80.20;99844.31;5019870;27;103299;-66
2022/10/07 00:23:35;;;;;;;4.47;2.70;;;;;;;15.50;80.17;99838.22;5021163;27;103159;-66
2022/10/07 00:26:07;;;;;;;6.60;3.28;;;;;;;15.44;80.61;99835.13;5017703;27;102719;-66
2022/10/07 00:28:36;;;;;;;3.08;2.50;;;;;;;15.50;80.61;99829.38;5018633;27;104497;-65
2022/10/07 00:31:10;;;;;;;6.20;3.30;;;;;;;15.44;80.28;99830.66;5017430;27;103946;-60
2022/10/07 00:33:40;;;;;;;3.30;2.38;;;;;;;15.54;80.21;99826.38;5017910;27;105955;-59
2022/10/07 00:36:10;;;;;;;4.68;3.08;;;;;;;15.54;80.09;99823.72;5022487;27;102744;-60
2022/10/07 00:38:41;;;;;;;5.53;3.63;;;;;;;15.12;82.55;99828.66;5016349;27;104074;-59
2022/10/07 00:41:18;;;;;;;4.70;3.17;;;;;;;15.31;82.13;99818.38;5017294;27;104310;-59
2022/10/07 00:43:47;;;;;;;4.18;2.55;;;;;;;15.49;80.94;99815.22;5020423;27;103328;-59
2022/10/07 00:46:25;;;;;;;5.50;3.42;;;;;;;15.37;80.89;99812.59;5018952;27;102758;-59
2022/10/07 00:48:54;;;;;;;4.35;3.03;;;;;;;15.37;81.85;99810.78;5021208;27;102982;-59
2022/10/07 00:51:22;;;;;;;6.90;3.65;;;;;;;15.29;81.65;99799.84;5021113;27;104012;-60
2022/10/07 00:53:52;;;;;;;5.60;3.42;;;;;;;15.43;81.02;99797.00;5018017;27;103282;-59
2022/10/07 00:56:23;;;;;;;2.60;2.40;;;;;;;15.52;80.45;99793.66;5019711;27;104032;-59
2022/10/07 00:58:51;;;;;;;3.97;2.80;;;;;;;15.59;79.91;99797.59;5034698;27;102874;-59
2022/10/07 01:01:20;;;;;;;5.15;3.70;;;;;;;15.00;82.46;99793.16;5016616;27;103253;-59
2022/10/07 01:03:49;;;;;;;4.97;3.15;;;;;;;15.21;82.98;99794.25;5016404;27;103207;-59
2022/10/07 01:06:17;;;;;;;7.85;3.80;;;;;;;15.13;82.07;99788.63;5018164;27;102741;-59
2022/10/07 01:08:47;;;;;;;4.22;3.22;;;;;;;15.01;84.14;99785.06;5019765;27;104239;-59
2022/10/07 01:11:32;;;;;;;3.85;2.40;;;;;;;15.36;81.91;99790.44;5015466;27;104374;-59
2022/10/07 01:14:07;;;;;;;2.38;2.17;;;;;;;15.55;80.60;99790.78;5018337;27;104277;-59
2022/10/07 01:16:43;;;;;;;6.85;3.10;;;;;;;15.59;80.10;99778.09;5024501;27;104088;-59
2022/10/07 01:19:36;;;;;;;4.38;3.10;;;;;;;15.28;82.38;99776.00;5035582;27;103057;-59
2022/10/07 01:22:21;;;;;;;3.17;2.60;;;;;;;15.54;81.11;99775.78;5022440;27;104136;-59
2022/10/07 01:24:58;;;;;;;4.82;3.13;;;;;;;15.60;79.80;99772.66;5019687;27;104278;-59
2022/10/07 01:27:29;;;;;;;5.32;2.90;;;;;;;15.64;80.19;99765.25;5025203;27;103058;-59
2022/10/07 01:30:02;;;;;;;2.90;2.20;;;;;;;15.73;79.73;99766.38;5016107;27;104335;-60
2022/10/07 01:32:35;;;;;;;3.70;3.08;;;;;;;15.79;79.69;99760.56;5015967;27;103230;-65
2022/10/07 01:35:10;;;;;;;3.63;2.40;;;;;;;15.79;79.63;99763.25;5028876;27;104110;-65
2022/10/07 01:37:44;;;;;;;2.85;2.50;;;;;;;15.83;79.49;99756.72;5021531;27;102626;-65
2022/10/07 01:40:15;;;;;;;6.10;3.53;;;;;;;15.58;79.72;99755.91;5011834;27;104534;-59
2022/10/07 01:42:46;;;;;;;5.90;3.03;;;;;;;15.63;79.88;99753.75;5014346;27;104273;-59
2022/10/07 01:45:20;;;;;;;3.67;2.83;;;;;;;15.67;79.59;99757.03;5024195;27;103394;-59
2022/10/07 01:47:48;;;;;;;4.25;2.92;;;;;;;15.59;79.35;99743.47;5019418;27;102825;-60
2022/10/07 01:50:20;;;;;;;6.05;3.30;;;;;;;15.63;79.15;99748.41;5015888;27;104531;-59
2022/10/07 01:53:02;;;;;;;3.58;2.53;;;;;;;15.69;79.19;99741.78;5016192;27;104364;-59
2022/10/07 01:55:50;;;;;;;3.25;2.35;;;;;;;15.75;78.77;99737.81;5019206;27;103405;-60
2022/10/07 01:58:32;;;;;;;5.55;3.47;;;;;;;15.55;79.67;99732.19;5017170;27;102752;-59
2022/10/07 02:01:14;;;;;;;5.43;3.40;;;;;;;15.47;79.94;99733.72;5011398;27;104332;-60
2022/10/07 02:04:00;;;;;;;4.50;2.88;;;;;;;15.57;79.35;99734.75;5020960;27;103336;-59
2022/10/07 02:06:38;;;;;;;5.40;3.58;;;;;;;15.46;78.85;99732.91;5019670;27;104438;-59
2022/10/07 02:09:18;;;;;;;6.03;3.60;;;;;;;15.23;79.94;99725.75;5025849;27;103029;-60
2022/10/07 02:11:55;;;;;;;4.55;3.13;;;;;;;15.46;78.86;99724.91;5025056;27;103880;-59
2022/10/07 02:14:38;;;;;;;5.32;3.53;;;;;;;15.42;79.13;99718.06;5022031;27;104155;-59
2022/10/07 02:17:13;;;;;;;4.25;2.90;;;;;;;15.51;78.95;99719.22;5023480;27;104999;-59
2022/10/07 02:19:47;;;;;;;7.07;3.75;;;;;;;15.48;78.28;99716.78;5022914;27;102667;-59
2022/10/07 02:22:17;;;;;;;5.72;3.47;;;;;;;15.08;81.41;99724.25;5021104;27;102807;-59
2022/10/07 02:24:48;;;;;;;5.90;3.87;;;;;;;14.96;80.95;99714.53;5018045;27;104453;-59
2022/10/07 02:27:20;;;;;;;8.00;3.92;;;;;;;14.90;81.13;99717.63;5019055;27;104455;-59
2022/10/07 02:29:56;;;;;;;5.88;3.67;;;;;;;15.06;80.53;99711.06;5035308;27;102723;-59
2022/10/07 02:32:27;;;;;;;6.57;3.80;;;;;;;15.07;80.28;99720.72;5034334;27;102828;-59
2022/10/07 02:35:02;;;;;;;6.72;4.10;;;;;;;14.55;82.48;99708.72;5018757;27;105151;-59
2022/10/07 02:37:35;;;;;;;4.15;2.80;;;;;;;15.01;80.94;99699.06;5016191;27;105148;-60
2022/10/07 02:40:06;;;;;;;4.33;3.00;;;;;;;15.26;79.53;99698.06;5022487;27;102983;-59
2022/10/07 02:42:51;;;;;;;5.97;3.65;;;;;;;14.74;81.51;99703.75;5021149;27;104130;-60
2022/10/07 02:45:25;;;;;;;4.47;2.83;;;;;;;14.92;82.23;99697.94;5020092;27;104284;-59
2022/10/07 02:48:00;;;;;;;5.45;3.20;;;;;;;15.17;81.34;99694.28;5016063;27;103199;-65
2022/10/07 02:50:37;;;;;;;7.30;4.32;;;;;;;14.43;83.38;99695.34;5026120;27;104123;-66
2022/10/07 02:53:06;;;;;;;6.90;4.10;;;;;;;14.66;83.28;99698.16;5014678;27;104089;-65
2022/10/07 02:55:34;;;;;;;5.30;3.80;;;;;;;14.78;81.95;99691.94;5018636;27;104541;-66
2022/10/07 02:58:07;;;;;;;5.65;3.20;;;;;;;15.01;80.95;99688.41;5019141;27;104439;-65
2022/10/07 03:00:42;;;;;;;8.02;4.30;;;;;;;14.54;81.73;99688.44;5017183;27;102785;-66
2022/10/07 03:03:10;;;;;;;6.63;3.60;;;;;;;14.67;81.82;99690.06;5016449;27;104452;-66
2022/10/07 03:05:54;;;;;;;4.40;2.78;;;;;;;15.06;80.39;99678.28;5021635;27;104468;-65
2022/10/07 03:08:23;;;;;;;7.13;4.13;;;;;;;14.81;80.30;99681.91;5020355;27;104909;-65
2022/10/07 03:10:52;;;;;;;5.10;3.63;;;;;;;14.85;80.90;99677.22;5018269;27;102854;-65
2022/10/07 03:13:20;;;;;;;3.93;2.60;;;;;;;15.09;80.31;99670.91;5027145;27;103195;-66
2022/10/07 03:15:54;;;;;;;4.68;3.17;;;;;;;15.14;79.84;99667.03;5026302;27;104248;-66
2022/10/07 03:18:27;;;;;;;5.65;3.60;;;;;;;14.99;80.81;99674.34;5027608;27;102918;-64
2022/10/07 03:21:21;;;;;;;5.63;3.30;;;;;;;15.10;79.65;99666.44;5019221;27;102790;-64
2022/10/07 03:23:53;;;;;;;4.65;2.83;;;;;;;15.08;80.49;99668.34;5026276;27;103032;-65
2022/10/07 03:26:25;;;;;;;5.82;3.50;;;;;;;15.21;79.48;99669.13;5022769;27;104052;-64
2022/10/07 03:28:54;;;;;;;6.15;3.28;;;;;;;15.24;79.67;99660.88;5026848;27;104459;-65
2022/10/07 03:31:25;;;;;;;7.63;4.15;;;;;;;14.87;80.90;99659.34;5026023;27;102631;-65
2022/10/07 03:33:56;;;;;;;5.20;4.03;;;;;;;14.52;84.50;99660.13;5027280;27;104347;-65
2022/10/07 03:36:25;;;;;;;5.70;3.45;;;;;;;14.76;82.61;99657.47;5030272;27;103050;-65
2022/10/07 03:39:03;;;;;;;5.82;3.97;;;;;;;14.62;82.47;99651.47;5023547;27;103184;-65
2022/10/07 03:41:32;;;;;;;7.90;4.55;;;;;;;14.34;83.79;99650.00;5025136;27;102982;-66
2022/10/07 03:44:02;;;;;;;6.72;4.38;;;;;;;14.22;83.96;99656.16;5031427;27;102718;-66
2022/10/07 03:46:32;;;;;;;6.20;3.95;;;;;;;14.38;84.01;99652.31;5024551;27;103775;-66
2022/10/07 03:49:01;;;;;;;7.95;3.97;;;;;;;14.63;82.33;99653.16;5039757;27;104231;-65
2022/10/07 03:51:29;;;;;;;5.82;3.50;;;;;;;14.77;82.08;99652.97;5027597;27;103901;-65
2022/10/07 03:53:57;;;;;;;5.27;3.90;;;;;;;14.58;83.14;99647.34;5025828;27;102998;-65
2022/10/07 03:56:29;;;;;;;4.43;3.67;;;;;;;14.82;82.29;99640.22;5024771;27;103971;-66
2022/10/07 03:58:58;;;;;;;5.13;3.60;;;;;;;14.92;81.99;99638.56;5024612;27;103699;-65
2022/10/07 04:01:30;;;;;;;7.03;4.03;;;;;;;15.01;80.77;99646.69;5026818;27;102815;-63
2022/10/07 04:04:00;;;;;;;5.18;3.60;;;;;;;14.93;81.52;99642.91;5022561;27;104193;-62
2022/10/07 04:06:33;;;;;;;5.03;3.65;;;;;;;15.02;81.58;99636.88;5017941;27;104201;-63
2022/10/07 04:09:05;;;;;;;5.30;3.47;;;;;;;15.06;81.23;99633.03;5025081;27;103202;-58
2022/10/07 04:11:34;;;;;;;4.43;3.20;;;;;;;15.04;81.44;99632.31;5020335;27;102725;-58
2022/10/07 04:14:02;;;;;;;5.40;3.50;;;;;;;14.68;83.33;99621.78;5025879;27;103040;-58
2022/10/07 04:16:32;;;;;;;8.80;4.60;;;;;;;14.34;84.87;99634.06;5018708;27;104048;-58
2022/10/07 04:19:08;;;;;;;6.50;4.20;;;;;;;14.44;84.48;99625.28;5028190;27;105488;-63
2022/10/07 04:21:36;;;;;;;6.50;4.20;;;;;;;14.44;83.93;99627.94;5023575;27;102845;-58
2022/10/07 04:24:04;;;;;;;4.57;3.58;;;;;;;14.49;85.36;99627.59;5022970;27;103121;-58
2022/10/07 04:26:32;;;;;;;4.90;3.75;;;;;;;14.60;83.69;99626.78;5022080;27;103889;-58
2022/10/07 04:29:00;;;;;;;6.63;4.30;;;;;;;14.33;85.20;99624.38;5043531;27;104161;-58
2022/10/07 04:31:28;;;;;;;9.20;4.22;;;;;;;14.14;86.53;99626.63;5025484;27;102847;-63
2022/10/07 04:34:01;;;;;;;3.95;3.25;;;;;;;14.43;86.62;99618.25;5026311;27;102944;-63
2022/10/07 04:36:35;;;;;;;8.90;4.60;;;;;;;14.32;85.46;99620.00;5025937;27;104900;-63
2022/10/07 04:39:07;;;;;;;6.05;3.88;;;;;;;14.23;86.14;99616.16;5024610;27;104211;-63
2022/10/07 04:41:42;;;;;;;8.95;4.28;;;;;;;13.91;87.64;99612.34;5026240;27;104815;-58
2022/10/07 04:44:16;;;;;;;6.80;4.43;;;;;;;14.03;87.79;99610.63;5025237;27;103814;-62
2022/10/07 04:46:52;;;;;;;7.43;4.50;;;;;;;14.03;87.18;99606.16;5024705;27;104254;-63
2022/10/07 04:49:21;;;;;;;6.93;4.80;;;;;;;13.94;87.43;99598.84;5022232;27;105549;-63
2022/10/07 04:51:50;;;;;;;6.72;4.50;;;;;;;14.11;87.28;99606.44;5021575;27;103845;-63
2022/10/07 04:54:18;;;;;;;6.03;3.63;;;;;;;13.99;88.74;99606.47;5018109;27;104215;-63
2022/10/07 04:56:51;;;;;;;8.43;3.95;;;;;;;14.15;86.91;99596.44;5022185;27;103928;-63
2022/10/07 04:59:23;;;;;;;6.43;3.90;;;;;;;14.32;86.32;99596.94;5035998;27;104500;-63
2022/10/07 05:01:55;;;;;;;7.63;4.43;;;;;;;14.04;87.65;99599.88;5022275;27;102774;-63
2022/10/07 05:04:24;;;;;;;3.67;3.03;;;;;;;14.42;86.06;99597.97;5024491;27;103746;-63
2022/10/07 05:06:58;;;;;;;3.75;3.08;;;;;;;14.69;84.39;99596.84;5017549;27;105066;-63
2022/10/07 05:09:26;;;;;;;5.57;3.50;;;;;;;14.81;83.04;99598.59;5025655;27;104339;-63
2022/10/07 05:11:56;;;;;;;6.13;3.07;;;;;;;14.80;83.22;99595.09;5022047;27;102972;-63
2022/10/07 05:14:24;;;;;;;3.75;2.88;;;;;;;14.86;82.64;99605.28;5026775;27;103712;-64
2022/10/07 05:16:52;;;;;;;8.57;4.70;;;;;;;14.44;82.96;99588.06;5028734;27;104867;-64
2022/10/07 05:19:24;;;;;;;6.55;4.30;;;;;;;14.42;83.89;99595.31;5032385;27;103208;-64
2022/10/07 05:21:53;;;;;;;9.70;4.32;;;;;;;14.39;83.52;99600.84;5028130;27;102939;-64
2022/10/07 05:24:23;;;;;;;6.35;3.55;;;;;;;14.59;83.75;99591.41;5035321;27;102809;-64
2022/10/07 05:26:51;;;;;;;8.18;4.15;;;;;;;14.70;82.45;99594.09;5028995;27;103290;-64
2022/10/07 05:29:19;;;;;;;4.75;3.05;;;;;;;14.92;81.95;99588.00;5026010;27;103296;-64
2022/10/07 05:31:50;;;;;;;6.63;3.88;;;;;;;14.61;82.85;99585.94;5030428;27;103032;-64
2022/10/07 05:34:22;;;;;;;6.32;3.67;;;;;;;14.72;82.39;99592.16;5026435;27;104026;-64
2022/10/07 05:36:52;;;;;;;5.90;3.50;;;;;;;14.84;82.19;99593.06;5018263;27;106478;-64
2022/10/07 05:39:20;;;;;;;6.07;3.60;;;;;;;14.78;81.72;99590.84;5027329;27;106170;-64
2022/10/07 05:41:56;;;;;;;7.05;3.75;;;;;;;14.41;84.11;99585.63;5020815;27;102743;-65
2022/10/07 05:44:30;;;;;;;7.30;4.38;;;;;;;13.79;87.28;99592.81;5026299;27;103139;-65
2022/10/07 05:47:01;;;;;;;7.45;4.38;;;;;;;13.78;88.40;99592.94;5023072;27;105271;-64
2022/10/07 05:49:32;;;;;;;5.55;3.70;;;;;;;14.33;86.81;99584.50;5028287;27;104548;-64
2022/10/07 05:51:59;;;;;;;6.00;4.10;;;;;;;14.46;84.96;99586.13;5022023;27;102681;-65
2022/10/07 05:54:32;;;;;;;5.88;3.83;;;;;;;14.24;86.02;99585.13;5023527;27;103087;-64
2022/10/07 05:57:01;;;;;;;5.73;3.53;;;;;;;14.52;84.52;99583.00;5024772;27;104276;-65
2022/10/07 05:59:30;;;;;;;8.50;4.18;;;;;;;14.61;83.59;99581.47;5025838;27;103214;-64
2022/10/07 06:01:59;;;;;;;5.20;3.38;;;;;;;14.80;83.18;99578.28;5021530;27;102807;-62
2022/10/07 06:04:28;;;;;;;3.45;2.58;;;;;;;15.05;82.40;99572.78;5024988;27;103992;-63
2022/10/07 06:06:56;;;;;;;7.73;3.80;;;;;;;14.97;81.03;99576.03;5023205;27;104074;-63
2022/10/07 06:15:05;;;;;;;5.57;3.83;;;;;;;15.17;80.84;99566.53;5024495;27;104192;-63
2022/10/07 06:17:34;;;;;;;7.47;4.10;;;;;;;15.17;80.54;99566.53;5020285;27;103255;-63
2022/10/07 06:20:05;;;;;;;6.05;3.63;;;;;;;15.23;80.13;99571.38;5021787;27;104357;-63
2022/10/07 06:22:34;;;;;;;7.43;4.20;;;;;;;15.23;80.24;99566.03;5025777;27;102659;-63
2022/10/07 06:25:02;;;;;;;6.67;3.77;;;;;;;15.37;80.11;99564.97;5023584;27;103370;-63
2022/10/07 06:27:34;;;;;;;9.05;4.65;;;;;;;14.92;81.94;99572.03;5022758;27;104156;-64
2022/10/07 06:30:04;;;;;;;8.13;4.50;;;;;;;14.82;83.30;99573.72;5029980;27;104568;-64
2022/10/07 06:32:32;;;;;;;7.95;4.28;;;;;;;14.37;85.38;99573.50;5023030;27;102926;-63
2022/10/07 06:35:00;;;;;;;6.95;4.38;;;;;;;14.09;86.40;99572.97;5030237;27;102766;-64
2022/10/07 06:37:31;;;;;;;10.70;4.63;;;;;;;14.46;86.49;99574.63;5018601;28;104183;-63
2022/10/07 06:39:59;;;;;;;6.05;3.65;;;;;;;14.92;84.77;99572.03;5023252;27;103304;-64
2022/10/07 06:42:31;;;;;;;9.10;3.90;;;;;;;14.89;84.04;99574.94;5028466;27;103042;-64
2022/10/07 06:45:19;;;;;;;6.82;4.15;;;;;;;14.85;84.83;99573.47;5033081;27;102749;-63
2022/10/07 06:47:49;;;;;;;6.88;4.40;;;;;;;14.83;85.00;99570.91;5034696;27;107109;-64
2022/10/07 06:50:17;;;;;;;7.85;4.05;;;;;;;15.17;83.31;99565.66;5024295;27;103238;-63
2022/10/07 06:52:45;;;;;;;8.93;5.13;;;;;;;14.90;84.58;99568.66;5022883;27;103239;-63
2022/10/07 06:55:13;;;;;;;8.17;4.50;;;;;;;15.04;83.36;99571.09;5029456;27;102795;-63
2022/10/07 06:57:42;;;;;;;7.88;4.43;;;;;;;15.22;84.02;99559.00;5019987;27;103560;-64
2022/10/07 07:00:16;;;;;;;7.15;3.80;;;;;;;15.24;84.21;99566.91;5030600;27;104224;-63
2022/10/07 07:02:47;;;;;;;6.97;3.93;;;;;;;15.84;81.57;99566.53;5041753;27;102757;-64
2022/10/07 07:05:16;;;;;;;6.33;3.87;;;;;;;16.05;80.54;99571.03;5032035;27;103589;-64
2022/10/07 07:07:46;;;;;;;3.47;3.05;;;;;;;16.46;78.95;99570.28;5025367;27;103842;-64
2022/10/07 07:10:14;;;;;;;8.13;4.17;;;;;;;16.74;78.75;99574.19;5027277;27;103840;-64
2022/10/07 07:12:46;;;;;;;6.47;3.95;;;;;;;16.95;77.58;99571.56;5032478;27;102595;-64
2022/10/07 07:15:17;;;;;;;5.75;3.90;;;;;;;17.27;76.47;99573.16;5029114;27;103159;-64
2022/10/07 07:17:46;;;;;;;5.93;4.40;;;;;;;17.25;76.45;99569.78;5028038;27;104416;-64
2022/10/07 07:20:15;;;;;;;9.05;4.80;;;;;;;17.48;75.54;99570.47;5024240;27;103443;-64
2022/10/07 07:22:43;;;;;;;7.90;4.43;;;;;;;17.87;75.20;99567.00;5025789;27;102681;-64
2022/10/07 07:25:12;;;;;;;11.10;6.00;;;;;;;17.85;74.00;99566.25;5022919;27;103986;-64
2022/10/07 07:27:40;;;;;;;8.43;5.35;;;;;;;18.16;73.39;99560.88;5027245;27;103277;-64
2022/10/07 07:30:12;;;;;;;5.82;4.40;;;;;;;18.67;71.36;99553.47;5028230;27;103281;-64
2022/10/07 07:32:41;;;;;;;9.63;5.00;;;;;;;18.82;70.66;99552.06;5030379;27;102673;-64
2022/10/07 07:35:12;;;;;;;10.15;5.95;;;;;;;19.03;70.65;99550.03;5024573;27;104017;-59
2022/10/07 07:37:41;;;;;;;9.98;5.53;;;;;;;18.37;71.48;99558.91;5028749;27;103885;-60
2022/10/07 07:40:10;;;;;;;11.20;5.60;;;;;;;19.05;69.94;99558.81;5022104;27;105933;-59
2022/10/07 07:42:38;;;;;;;7.93;4.68;;;;;;;19.59;69.17;99551.91;5032330;27;104428;-59
2022/10/07 07:45:07;;;;;;;9.25;5.35;;;;;;;19.34;68.80;99550.66;5027839;27;104148;-59
2022/10/07 07:47:35;;;;;;;7.32;5.63;;;;;;;18.73;71.41;99558.25;5030649;27;103981;-59
2022/10/07 07:50:05;;;;;;;9.98;5.40;;;;;;;19.55;68.69;99543.31;5025986;27;104357;-60
2022/10/07 07:52:36;;;;;;;9.48;4.90;;;;;;;19.84;67.85;99543.19;5023129;27;103133;-59
2022/10/07 07:55:07;;;;;;;9.43;5.50;;;;;;;19.45;67.89;99536.31;5024477;27;103761;-59
2022/10/07 07:57:36;;;;;;;9.75;5.60;;;;;;;19.98;67.47;99545.38;5029656;27;103799;-60
2022/10/07 08:00:10;;;;;;;9.68;4.60;;;;;;;20.56;66.60;99540.47;5026444;27;104427;-59
2022/10/07 08:02:53;;;;;;;11.48;5.50;;;;;;;20.47;64.74;99540.53;5023734;27;102680;-59
2022/10/07 08:05:21;;;;;;;9.48;5.20;;;;;;;20.62;64.56;99536.31;5025020;27;102799;-61
2022/10/07 08:07:54;;;;;;;7.57;4.90;;;;;;;21.06;63.82;99532.63;5022595;27;104068;-59
2022/10/07 08:10:25;;;;;;;6.03;4.70;;;;;;;21.32;63.61;99544.28;5024630;27;104109;-59
2022/10/07 08:12:54;;;;;;;7.72;4.53;;;;;;;21.80;63.12;99537.47;5022828;27;102756;-59
2022/10/07 08:15:23;;;;;;;8.13;5.40;;;;;;;20.72;64.10;99531.69;5025193;27;103224;-60
2022/10/07 08:17:52;;;;;;;6.93;4.85;;;;;;;21.73;61.54;99528.34;5021169;27;103300;-59
2022/10/07 08:20:20;;;;;;;7.80;4.78;;;;;;;22.19;61.45;99527.03;5029614;27;103311;-60
2022/10/07 08:22:48;;;;;;;6.53;4.65;;;;;;;22.11;60.42;99524.31;5020464;27;104130;-60
2022/10/07 08:25:18;;;;;;;6.47;4.38;;;;;;;22.16;61.66;99533.56;5024229;27;103008;-64
2022/10/07 08:27:46;;;;;;;13.55;4.90;;;;;;;22.13;61.18;99523.13;5022100;27;103397;-59
2022/10/07 08:30:15;;;;;;;10.48;5.30;;;;;;;22.00;62.70;99516.53;5024004;27;103218;-59
2022/10/07 08:32:43;;;;;;;9.30;4.78;;;;;;;22.41;61.20;99511.09;5024838;27;102848;-65
2022/10/07 08:35:10;;;;;;;6.47;4.65;;;;;;;22.13;60.41;99520.44;5025625;27;102629;-65
2022/10/07 08:37:38;;;;;;;8.57;4.50;;;;;;;22.25;60.26;99512.91;5025073;27;103929;-60
2022/10/07 08:40:07;;;;;;;6.22;4.55;;;;;;;22.63;58.49;99509.56;5027138;27;103416;-60
2022/10/07 08:42:39;;;;;;;8.82;4.90;;;;;;;22.37;60.42;99509.72;5025705;27;103198;-59
2022/10/07 08:45:15;;;;;;;7.45;4.40;;;;;;;22.76;59.43;99503.72;5031846;27;103875;-60
2022/10/07 08:47:45;;;;;;;7.90;4.30;;;;;;;22.75;58.42;99507.44;5029334;27;104172;-64
2022/10/07 08:50:16;;;;;;;6.85;4.20;;;;;;;22.72;57.68;99499.69;5030649;27;103230;-59
2022/10/07 08:52:51;;;;;;;5.40;4.30;;;;;;;22.41;59.67;99505.69;5028042;27;103719;-60
2022/10/07 08:55:27;;;;;;;6.65;4.50;;;;;;;22.97;58.37;99495.97;5030442;27;103961;-65
2022/10/07 08:58:13;;;;;;;7.60;4.20;;;;;;;23.48;56.49;99490.16;5030374;27;104032;-60
2022/10/07 09:00:49;;;;;;;7.68;3.92;;;;;;;23.40;56.62;99489.34;5023834;27;103465;-60
2022/10/07 09:03:30;;;;;;;6.40;4.72;;;;;;;23.26;55.97;99488.16;5028788;27;103032;-59
2022/10/07 09:06:01;;;;;;;7.57;4.10;;;;;;;23.36;54.93;99479.84;5026481;27;104103;-59
2022/10/07 09:08:34;;;;;;;6.80;4.32;;;;;;;23.06;56.22;99479.63;5024147;27;103393;-64
2022/10/07 09:11:15;;;;;;;5.90;3.90;;;;;;;22.96;57.52;99478.94;5028003;27;104898;-60
2022/10/07 09:13:48;;;;;;;6.72;3.42;;;;;;;23.26;56.17;99477.38;5029353;27;102611;-59
2022/10/07 09:16:23;;;;;;;7.70;4.13;;;;;;;23.18;55.86;99476.56;5024353;27;103212;-60
2022/10/07 09:18:54;;;;;;;6.05;3.65;;;;;;;23.85;55.48;99470.59;5024873;27;104054;-59
2022/10/07 09:21:32;;;;;;;6.93;3.60;;;;;;;24.20;54.48;99471.91;5021947;27;103323;-59
2022/10/07 09:24:15;;;;;;;6.10;3.47;;;;;;;23.27;55.24;99467.44;5031591;27;103241;-59
2022/10/07 09:26:46;;;;;;;3.63;2.80;;;;;;;23.52;54.50;99464.50;5030213;27;102822;-60
2022/10/07 09:29:18;;;;;;;6.75;3.10;;;;;;;23.82;54.97;99470.09;5022497;27;104289;-59
2022/10/07 09:31:48;;;;;;;4.35;2.90;;;;;;;23.67;54.98;99460.06;5025936;27;105304;-59
2022/10/07 09:34:22;;;;;;;7.13;2.80;;;;;;;22.93;56.00;99451.53;5025412;27;102816;-59
2022/10/07 09:37:10;;;;;;;4.22;2.90;;;;;;;23.38;55.89;99454.44;5025641;27;103849;-59
2022/10/07 09:39:40;;;;;;;6.55;2.40;;;;;;;24.06;53.61;99453.75;5030071;27;104129;-59
2022/10/07 09:42:28;;;;;;;4.43;2.80;;;;;;;23.30;56.24;99443.66;5024184;27;103452;-59
2022/10/07 09:45:00;;;;;;;6.77;3.00;;;;;;;22.96;56.10;99440.41;5021289;27;102856;-59
2022/10/07 09:47:34;;;;;;;5.00;3.10;;;;;;;23.31;55.42;99450.75;5026699;27;103816;-59
2022/10/07 09:50:03;;;;;;;5.13;2.80;;;;;;;23.65;54.46;99448.63;5028383;27;104834;-59
2022/10/07 09:52:32;;;;;;;6.57;3.40;;;;;;;22.81;56.16;99442.09;5029045;27;103335;-59
2022/10/07 09:55:30;;;;;;;8.40;3.45;;;;;;;23.22;55.75;99449.06;5026502;27;103078;-58
2022/10/07 09:58:00;;;;;;;4.63;3.20;;;;;;;22.88;56.69;99445.78;5033469;27;103950;-59
2022/10/07 10:00:30;;;;;;;7.57;3.00;;;;;;;23.22;55.74;99450.94;5022929;27;104343;-58
2022/10/07 10:03:05;;;;;;;4.32;3.30;;;;;;;22.92;55.38;99445.28;5020393;27;104315;-60
2022/10/07 10:05:38;;;;;;;7.15;3.47;;;;;;;22.98;55.90;99441.06;5025540;27;102706;-59
2022/10/07 10:08:21;;;;;;;5.73;2.97;;;;;;;23.84;52.37;99436.53;5017864;27;103141;-59
2022/10/07 10:10:51;;;;;;;4.75;2.67;;;;;;;23.78;54.16;99437.22;5026927;27;104035;-59
2022/10/07 10:13:27;;;;;;;8.45;3.00;;;;;;;23.61;54.94;99441.88;5025849;27;103868;-59
2022/10/07 10:15:57;;;;;;;4.13;3.50;;;;;;;23.46;55.33;99438.25;5028855;27;102786;-59
2022/10/07 10:18:35;;;;;;;5.00;3.75;;;;;;;23.80;54.36;99431.69;5029641;27;102634;-59
2022/10/07 10:21:21;;;;;;;8.98;3.53;;;;;;;22.63;55.70;99434.16;5024821;27;103682;-59
2022/10/07 10:23:52;;;;;;;5.77;3.23;;;;;;;23.28;55.83;99424.13;5032421;27;103199;-59
2022/10/07 10:26:36;;;;;;;5.38;3.20;;;;;;;23.20;54.16;99417.91;5028187;27;102622;-59
2022/10/07 10:29:17;;;;;;;3.57;2.70;;;;;;;24.28;53.45;99415.16;5030602;27;103752;-59
2022/10/07 10:32:43;;;;;;;5.55;3.28;;;;;;;24.24;53.01;99411.16;5025680;27;103641;-59
2022/10/07 10:35:15;;;;;;;6.68;3.28;;;;;;;23.86;54.91;99401.28;4956967;28;103257;-59
2022/10/07 10:37:58;;;;;;;6.53;3.63;;;;;;;23.98;54.52;99399.84;4939292;28;102986;-59
2022/10/07 10:40:35;;;;;;;5.25;3.67;;;;;;;23.66;54.81;99401.72;5003981;27;103132;-64
2022/10/07 10:43:19;;;;;;;5.63;3.90;;;;;;;23.73;54.11;99395.63;5030788;27;103968;-59
2022/10/07 10:45:58;;;;;;;3.90;3.30;;;;;;;23.92;53.56;99389.75;5019699;27;104314;-59
2022/10/07 10:48:42;;;;;;;4.40;3.10;;;;;;;24.64;51.86;99381.09;5024930;27;103122;-59
2022/10/07 10:51:26;;;;;;;5.90;3.55;;;;;;;24.70;53.13;99383.03;5023882;27;104042;-59
2022/10/07 10:54:10;;;;;;;4.97;3.50;;;;;;;24.50;52.71;99378.38;5019350;27;103858;-60
2022/10/07 10:56:44;;;;;;;6.30;3.90;;;;;;;24.67;52.39;99375.31;5021326;27;103233;-59
2022/10/07 10:59:27;;;;;;;4.47;3.75;;;;;;;24.66;52.91;99368.25;5020948;27;102786;-60
2022/10/07 11:02:08;;;;;;;5.20;3.77;;;;;;;25.22;51.67;99357.84;5021031;27;103850;-60
2022/10/07 11:04:45;;;;;;;5.20;3.40;;;;;;;24.93;51.87;99358.69;5017670;27;103540;-60
2022/10/07 11:07:21;;;;;;;6.30;4.07;;;;;;;23.98;53.95;99353.97;5016476;27;103237;-59
2022/10/07 11:09:54;;;;;;;5.37;3.93;;;;;;;24.36;53.92;99355.72;5022869;27;102811;-60
2022/10/07 11:12:26;;;;;;;5.80;3.90;;;;;;;24.59;53.14;99355.66;5025739;27;103252;-60
2022/10/07 11:15:00;;;;;;;5.47;4.37;;;;;;;24.17;53.51;99358.91;5020453;27;104600;-59
2022/10/07 11:17:34;;;;;;;7.13;4.88;;;;;;;24.19;53.02;99348.78;5020229;27;103211;-58
2022/10/07 11:20:14;;;;;;;8.23;4.60;;;;;;;24.56;53.34;99348.75;5018659;27;102665;-58
2022/10/07 11:22:49;;;;;;;6.00;4.28;;;;;;;24.64;53.10;99342.44;5028953;27;104371;-63
2022/10/07 11:25:28;;;;;;;6.40;3.80;;;;;;;24.97;52.84;99337.53;5021193;27;104248;-63
2022/10/07 11:28:05;;;;;;;4.60;3.90;;;;;;;24.45;53.53;99330.28;5023789;27;103330;-63
2022/10/07 11:30:41;;;;;;;7.43;4.32;;;;;;;24.01;53.99;99334.72;5024763;27;102924;-63
2022/10/07 11:33:22;;;;;;;5.28;4.65;;;;;;;24.69;52.71;99324.66;5022261;27;103748;-63
2022/10/07 11:35:57;;;;;;;7.80;4.63;;;;;;;23.92;54.61;99325.00;5022100;27;103438;-63
2022/10/07 11:38:30;;;;;;;6.73;4.30;;;;;;;24.34;53.57;99319.94;5019451;27;103241;-63
2022/10/07 11:41:03;;;;;;;5.15;3.60;;;;;;;25.02;53.58;99319.72;5020724;27;102765;-63
2022/10/07 11:43:37;;;;;;;5.05;4.25;;;;;;;24.76;52.25;99309.38;5012427;27;104277;-63
2022/10/07 11:46:09;;;;;;;6.07;3.92;;;;;;;24.01;54.92;99316.66;5025898;27;103600;-64
2022/10/07 11:48:43;;;;;;;5.63;4.80;;;;;;;24.18;54.05;99309.31;5022288;27;103229;-63
2022/10/07 11:51:22;;;;;;;6.70;4.40;;;;;;;24.40;54.08;99308.41;5017241;27;102689;-64
2022/10/07 11:53:53;;;;;;;3.70;3.40;;;;;;;24.81;53.08;99306.16;5017303;27;103708;-66
2022/10/07 11:56:24;;;;;;;5.77;4.20;;;;;;;24.95;52.49;99304.47;5013897;27;103427;-66